sensor_id;sensor_type;location;lat;lon;timestamp;P1;durP1;ratioP1;P2;durP2;ratioP2
37241;SDS011;23135;51.078;12.108;2023-04-25T00:02:20;5.68;;;2.60;;
37241;SDS011;23135;51.078;12.108;2023-04-25T00:04:47;7.47;;;2.83;;
37241;SDS011;23135;51.078;12.108;2023-04-25T00:07:14;8.60;;;3.28;;
37241;SDS011;23135;51.078;12.108;2023-04-25T00:09:41;9.23;;;3.60;;
37241;SDS011;23135;51.078;12.108;2023-04-25T00:12:06;3.53;;;2.70;;
37241;SDS011;23135;51.078;12.108;2023-04-25T00:14:32;7.65;;;3.42;;
37241;SDS011;23135;51.078;12.108;2023-04-25T00:17:01;5.25;;;2.75;;
37241;SDS011;23135;51.078;12.108;2023-04-25T00:19:27;5.57;;;3.17;;
37241;SDS011;23135;51.078;12.108;2023-04-25T00:21:56;7.85;;;3.30;;
37241;SDS011;23135;51.078;12.108;2023-04-25T00:24:22;4.70;;;2.83;;
37241;SDS011;23135;51.078;12.108;2023-04-25T00:26:48;5.15;;;2.45;;
37241;SDS011;23135;51.078;12.108;2023-04-25T00:29:13;4.25;;;2.00;;
37241;SDS011;23135;51.078;12.108;2023-04-25T00:31:39;4.82;;;2.67;;
37241;SDS011;23135;51.078;12.108;2023-04-25T00:34:05;5.07;;;2.95;;
37241;SDS011;23135;51.078;12.108;2023-04-25T00:36:31;5.68;;;3.05;;
37241;SDS011;23135;51.078;12.108;2023-04-25T00:38:57;8.75;;;3.17;;
37241;SDS011;23135;51.078;12.108;2023-04-25T00:41:23;12.90;;;3.33;;
37241;SDS011;23135;51.078;12.108;2023-04-25T00:43:50;6.93;;;2.85;;
37241;SDS011;23135;51.078;12.108;2023-04-25T00:46:16;5.45;;;2.25;;
37241;SDS011;23135;51.078;12.108;2023-04-25T00:48:42;5.97;;;2.80;;
37241;SDS011;23135;51.078;12.108;2023-04-25T00:51:08;8.40;;;3.30;;
37241;SDS011;23135;51.078;12.108;2023-04-25T00:53:37;4.90;;;2.63;;
37241;SDS011;23135;51.078;12.108;2023-04-25T00:56:03;7.68;;;3.38;;
37241;SDS011;23135;51.078;12.108;2023-04-25T00:58:29;4.05;;;2.17;;
37241;SDS011;23135;51.078;12.108;2023-04-25T01:00:54;10.85;;;3.53;;
37241;SDS011;23135;51.078;12.108;2023-04-25T01:03:22;7.05;;;3.00;;
37241;SDS011;23135;51.078;12.108;2023-04-25T01:05:48;5.00;;;2.40;;
37241;SDS011;23135;51.078;12.108;2023-04-25T01:08:15;6.68;;;3.13;;
37241;SDS011;23135;51.078;12.108;2023-04-25T01:10:41;10.55;;;3.45;;
37241;SDS011;23135;51.078;12.108;2023-04-25T01:13:07;5.53;;;3.00;;
37241;SDS011;23135;51.078;12.108;2023-04-25T01:15:33;6.22;;;3.20;;
37241;SDS011;23135;51.078;12.108;2023-04-25T01:18:00;5.45;;;3.30;;
37241;SDS011;23135;51.078;12.108;2023-04-25T01:20:26;6.47;;;2.80;;
37241;SDS011;23135;51.078;12.108;2023-04-25T01:22:54;8.23;;;3.08;;
37241;SDS011;23135;51.078;12.108;2023-04-25T01:25:21;9.13;;;3.72;;
37241;SDS011;23135;51.078;12.108;2023-04-25T01:27:47;9.50;;;4.13;;
37241;SDS011;23135;51.078;12.108;2023-04-25T01:30:13;8.75;;;2.80;;
37241;SDS011;23135;51.078;12.108;2023-04-25T01:32:39;7.20;;;2.75;;
37241;SDS011;23135;51.078;12.108;2023-04-25T01:35:10;6.25;;;3.35;;
37241;SDS011;23135;51.078;12.108;2023-04-25T01:37:40;7.10;;;3.83;;
37241;SDS011;23135;51.078;12.108;2023-04-25T01:40:06;6.07;;;3.25;;
37241;SDS011;23135;51.078;12.108;2023-04-25T01:42:34;10.43;;;3.97;;
37241;SDS011;23135;51.078;12.108;2023-04-25T01:45:00;7.32;;;3.15;;
37241;SDS011;23135;51.078;12.108;2023-04-25T01:47:27;7.10;;;3.03;;
37241;SDS011;23135;51.078;12.108;2023-04-25T01:49:52;8.25;;;3.88;;
37241;SDS011;23135;51.078;12.108;2023-04-25T01:52:18;4.35;;;3.30;;
37241;SDS011;23135;51.078;12.108;2023-04-25T01:54:43;9.05;;;3.50;;
37241;SDS011;23135;51.078;12.108;2023-04-25T01:57:12;8.75;;;3.03;;
37241;SDS011;23135;51.078;12.108;2023-04-25T01:59:38;11.80;;;3.72;;
37241;SDS011;23135;51.078;12.108;2023-04-25T02:02:04;5.95;;;3.47;;
37241;SDS011;23135;51.078;12.108;2023-04-25T02:04:30;8.98;;;3.15;;
37241;SDS011;23135;51.078;12.108;2023-04-25T02:06:56;6.43;;;3.15;;
37241;SDS011;23135;51.078;12.108;2023-04-25T02:09:21;6.93;;;3.55;;
37241;SDS011;23135;51.078;12.108;2023-04-25T02:11:47;5.45;;;3.63;;
37241;SDS011;23135;51.078;12.108;2023-04-25T02:14:13;7.70;;;4.45;;
37241;SDS011;23135;51.078;12.108;2023-04-25T02:16:39;8.43;;;3.88;;
37241;SDS011;23135;51.078;12.108;2023-04-25T02:19:05;4.10;;;3.35;;
37241;SDS011;23135;51.078;12.108;2023-04-25T02:21:31;12.82;;;4.30;;
37241;SDS011;23135;51.078;12.108;2023-04-25T02:23:57;9.00;;;3.95;;
37241;SDS011;23135;51.078;12.108;2023-04-25T02:26:23;7.85;;;4.00;;
37241;SDS011;23135;51.078;12.108;2023-04-25T02:28:49;11.00;;;3.70;;
37241;SDS011;23135;51.078;12.108;2023-04-25T02:31:15;6.68;;;3.05;;
37241;SDS011;23135;51.078;12.108;2023-04-25T02:33:41;5.13;;;3.60;;
37241;SDS011;23135;51.078;12.108;2023-04-25T02:36:07;7.93;;;3.67;;
37241;SDS011;23135;51.078;12.108;2023-04-25T02:38:33;7.80;;;3.47;;
37241;SDS011;23135;51.078;12.108;2023-04-25T02:40:59;9.60;;;4.50;;
37241;SDS011;23135;51.078;12.108;2023-04-25T02:43:24;7.78;;;4.35;;
37241;SDS011;23135;51.078;12.108;2023-04-25T02:45:50;5.57;;;3.13;;
37241;SDS011;23135;51.078;12.108;2023-04-25T02:48:15;6.10;;;3.97;;
37241;SDS011;23135;51.078;12.108;2023-04-25T02:50:41;7.63;;;4.00;;
37241;SDS011;23135;51.078;12.108;2023-04-25T02:53:07;11.38;;;5.30;;
37241;SDS011;23135;51.078;12.108;2023-04-25T02:55:32;12.60;;;5.45;;
37241;SDS011;23135;51.078;12.108;2023-04-25T02:57:58;9.45;;;3.75;;
37241;SDS011;23135;51.078;12.108;2023-04-25T03:00:24;8.40;;;4.00;;
37241;SDS011;23135;51.078;12.108;2023-04-25T03:02:50;8.38;;;4.32;;
37241;SDS011;23135;51.078;12.108;2023-04-25T03:05:16;7.40;;;4.43;;
37241;SDS011;23135;51.078;12.108;2023-04-25T03:07:42;7.40;;;4.32;;
37241;SDS011;23135;51.078;12.108;2023-04-25T03:10:08;6.63;;;3.72;;
37241;SDS011;23135;51.078;12.108;2023-04-25T03:12:34;8.70;;;4.57;;
37241;SDS011;23135;51.078;12.108;2023-04-25T03:15:00;12.35;;;4.00;;
37241;SDS011;23135;51.078;12.108;2023-04-25T03:17:25;7.00;;;4.38;;
37241;SDS011;23135;51.078;12.108;2023-04-25T03:19:51;10.95;;;4.60;;
37241;SDS011;23135;51.078;12.108;2023-04-25T03:22:17;7.47;;;4.47;;
37241;SDS011;23135;51.078;12.108;2023-04-25T03:24:42;8.27;;;4.93;;
37241;SDS011;23135;51.078;12.108;2023-04-25T03:27:08;8.07;;;3.90;;
37241;SDS011;23135;51.078;12.108;2023-04-25T03:29:33;9.10;;;4.88;;
37241;SDS011;23135;51.078;12.108;2023-04-25T03:31:59;7.22;;;4.43;;
37241;SDS011;23135;51.078;12.108;2023-04-25T03:34:25;9.45;;;4.10;;
37241;SDS011;23135;51.078;12.108;2023-04-25T03:36:51;6.20;;;3.72;;
37241;SDS011;23135;51.078;12.108;2023-04-25T03:39:16;10.55;;;5.18;;
37241;SDS011;23135;51.078;12.108;2023-04-25T03:41:42;6.07;;;4.10;;
37241;SDS011;23135;51.078;12.108;2023-04-25T03:44:07;6.75;;;3.70;;
37241;SDS011;23135;51.078;12.108;2023-04-25T03:46:33;10.45;;;4.90;;
37241;SDS011;23135;51.078;12.108;2023-04-25T03:48:58;10.40;;;4.68;;
37241;SDS011;23135;51.078;12.108;2023-04-25T03:51:24;11.95;;;4.00;;
37241;SDS011;23135;51.078;12.108;2023-04-25T03:53:50;9.25;;;4.63;;
37241;SDS011;23135;51.078;12.108;2023-04-25T03:56:16;11.25;;;4.20;;
37241;SDS011;23135;51.078;12.108;2023-04-25T03:58:42;7.03;;;3.92;;
37241;SDS011;23135;51.078;12.108;2023-04-25T04:01:08;7.72;;;3.72;;
37241;SDS011;23135;51.078;12.108;2023-04-25T04:03:34;6.40;;;3.55;;
37241;SDS011;23135;51.078;12.108;2023-04-25T04:06:03;8.45;;;4.85;;
37241;SDS011;23135;51.078;12.108;2023-04-25T04:08:30;8.05;;;4.60;;
37241;SDS011;23135;51.078;12.108;2023-04-25T04:10:59;8.30;;;5.13;;
37241;SDS011;23135;51.078;12.108;2023-04-25T04:13:26;9.93;;;4.80;;
37241;SDS011;23135;51.078;12.108;2023-04-25T04:15:52;8.55;;;5.70;;
37241;SDS011;23135;51.078;12.108;2023-04-25T04:18:18;10.73;;;5.80;;
37241;SDS011;23135;51.078;12.108;2023-04-25T04:20:43;10.32;;;5.13;;
37241;SDS011;23135;51.078;12.108;2023-04-25T04:23:09;10.18;;;4.40;;
37241;SDS011;23135;51.078;12.108;2023-04-25T04:25:35;8.77;;;5.07;;
37241;SDS011;23135;51.078;12.108;2023-04-25T04:28:01;14.98;;;4.90;;
37241;SDS011;23135;51.078;12.108;2023-04-25T04:30:27;12.50;;;6.38;;
37241;SDS011;23135;51.078;12.108;2023-04-25T04:32:54;8.43;;;4.45;;
37241;SDS011;23135;51.078;12.108;2023-04-25T04:35:21;14.63;;;5.90;;
37241;SDS011;23135;51.078;12.108;2023-04-25T04:37:47;8.20;;;5.15;;
37241;SDS011;23135;51.078;12.108;2023-04-25T04:40:13;14.75;;;5.90;;
37241;SDS011;23135;51.078;12.108;2023-04-25T04:42:40;10.55;;;5.57;;
37241;SDS011;23135;51.078;12.108;2023-04-25T04:45:07;7.22;;;4.53;;
37241;SDS011;23135;51.078;12.108;2023-04-25T04:47:34;10.82;;;5.95;;
37241;SDS011;23135;51.078;12.108;2023-04-25T04:50:01;10.52;;;5.18;;
37241;SDS011;23135;51.078;12.108;2023-04-25T04:52:33;8.70;;;3.95;;
37241;SDS011;23135;51.078;12.108;2023-04-25T04:54:59;9.98;;;4.68;;
37241;SDS011;23135;51.078;12.108;2023-04-25T04:57:25;10.82;;;4.65;;
37241;SDS011;23135;51.078;12.108;2023-04-25T04:59:51;11.07;;;5.13;;
37241;SDS011;23135;51.078;12.108;2023-04-25T05:02:17;11.75;;;4.45;;
37241;SDS011;23135;51.078;12.108;2023-04-25T05:04:42;9.68;;;4.07;;
37241;SDS011;23135;51.078;12.108;2023-04-25T05:07:08;8.77;;;5.00;;
37241;SDS011;23135;51.078;12.108;2023-04-25T05:09:33;8.48;;;4.57;;
37241;SDS011;23135;51.078;12.108;2023-04-25T05:11:59;7.05;;;4.30;;
37241;SDS011;23135;51.078;12.108;2023-04-25T05:14:25;11.35;;;5.68;;
37241;SDS011;23135;51.078;12.108;2023-04-25T05:16:51;5.32;;;4.03;;
37241;SDS011;23135;51.078;12.108;2023-04-25T05:19:17;13.43;;;4.18;;
37241;SDS011;23135;51.078;12.108;2023-04-25T05:21:42;9.15;;;4.57;;
37241;SDS011;23135;51.078;12.108;2023-04-25T05:24:08;10.75;;;4.53;;
37241;SDS011;23135;51.078;12.108;2023-04-25T05:26:33;14.35;;;5.15;;
37241;SDS011;23135;51.078;12.108;2023-04-25T05:28:59;8.65;;;5.03;;
37241;SDS011;23135;51.078;12.108;2023-04-25T05:31:25;9.88;;;5.60;;
37241;SDS011;23135;51.078;12.108;2023-04-25T05:33:51;9.02;;;4.55;;
37241;SDS011;23135;51.078;12.108;2023-04-25T05:36:18;9.52;;;4.32;;
37241;SDS011;23135;51.078;12.108;2023-04-25T05:38:43;10.55;;;3.72;;
37241;SDS011;23135;51.078;12.108;2023-04-25T05:41:09;10.40;;;4.82;;
37241;SDS011;23135;51.078;12.108;2023-04-25T05:43:35;7.82;;;4.68;;
37241;SDS011;23135;51.078;12.108;2023-04-25T05:46:00;6.43;;;4.57;;
37241;SDS011;23135;51.078;12.108;2023-04-25T05:48:26;19.30;;;4.95;;
37241;SDS011;23135;51.078;12.108;2023-04-25T05:50:51;13.85;;;5.18;;
37241;SDS011;23135;51.078;12.108;2023-04-25T05:53:18;8.00;;;4.40;;
37241;SDS011;23135;51.078;12.108;2023-04-25T05:55:44;8.40;;;4.13;;
37241;SDS011;23135;51.078;12.108;2023-04-25T05:58:09;13.25;;;3.13;;
37241;SDS011;23135;51.078;12.108;2023-04-25T06:00:35;8.65;;;4.15;;
37241;SDS011;23135;51.078;12.108;2023-04-25T06:03:01;8.43;;;4.22;;
37241;SDS011;23135;51.078;12.108;2023-04-25T06:05:26;11.65;;;4.78;;
37241;SDS011;23135;51.078;12.108;2023-04-25T06:07:52;7.85;;;3.55;;
37241;SDS011;23135;51.078;12.108;2023-04-25T06:10:17;8.57;;;3.78;;
37241;SDS011;23135;51.078;12.108;2023-04-25T06:12:43;11.77;;;4.03;;
37241;SDS011;23135;51.078;12.108;2023-04-25T06:15:09;4.88;;;2.95;;
37241;SDS011;23135;51.078;12.108;2023-04-25T06:17:35;11.38;;;3.97;;
37241;SDS011;23135;51.078;12.108;2023-04-25T06:20:00;4.47;;;3.28;;
37241;SDS011;23135;51.078;12.108;2023-04-25T06:22:26;8.23;;;3.42;;
37241;SDS011;23135;51.078;12.108;2023-04-25T06:24:52;7.07;;;2.92;;
37241;SDS011;23135;51.078;12.108;2023-04-25T06:27:18;9.70;;;3.35;;
37241;SDS011;23135;51.078;12.108;2023-04-25T06:29:44;4.30;;;2.30;;
37241;SDS011;23135;51.078;12.108;2023-04-25T06:32:10;4.80;;;2.30;;
37241;SDS011;23135;51.078;12.108;2023-04-25T06:34:35;9.60;;;3.03;;
37241;SDS011;23135;51.078;12.108;2023-04-25T06:37:01;10.13;;;3.30;;
37241;SDS011;23135;51.078;12.108;2023-04-25T06:39:26;5.10;;;2.35;;
37241;SDS011;23135;51.078;12.108;2023-04-25T06:41:52;19.88;;;2.10;;
37241;SDS011;23135;51.078;12.108;2023-04-25T06:44:18;7.93;;;1.80;;
37241;SDS011;23135;51.078;12.108;2023-04-25T06:46:43;4.93;;;2.00;;
37241;SDS011;23135;51.078;12.108;2023-04-25T06:49:09;5.53;;;2.22;;
37241;SDS011;23135;51.078;12.108;2023-04-25T06:51:34;10.82;;;2.25;;
37241;SDS011;23135;51.078;12.108;2023-04-25T06:54:00;4.47;;;1.23;;
37241;SDS011;23135;51.078;12.108;2023-04-25T06:56:26;5.15;;;2.58;;
37241;SDS011;23135;51.078;12.108;2023-04-25T06:58:53;5.13;;;1.92;;
37241;SDS011;23135;51.078;12.108;2023-04-25T07:01:18;2.95;;;1.70;;
37241;SDS011;23135;51.078;12.108;2023-04-25T07:03:44;10.38;;;3.05;;
37241;SDS011;23135;51.078;12.108;2023-04-25T07:06:09;5.50;;;3.10;;
37241;SDS011;23135;51.078;12.108;2023-04-25T07:08:35;6.63;;;2.20;;
37241;SDS011;23135;51.078;12.108;2023-04-25T07:11:00;8.23;;;2.78;;
37241;SDS011;23135;51.078;12.108;2023-04-25T07:13:26;5.18;;;2.00;;
37241;SDS011;23135;51.078;12.108;2023-04-25T07:15:51;6.18;;;1.60;;
37241;SDS011;23135;51.078;12.108;2023-04-25T07:18:17;4.95;;;2.50;;
37241;SDS011;23135;51.078;12.108;2023-04-25T07:20:43;7.45;;;1.60;;
37241;SDS011;23135;51.078;12.108;2023-04-25T07:23:08;2.58;;;1.58;;
37241;SDS011;23135;51.078;12.108;2023-04-25T07:25:34;3.60;;;1.25;;
37241;SDS011;23135;51.078;12.108;2023-04-25T07:28:00;6.65;;;2.28;;
37241;SDS011;23135;51.078;12.108;2023-04-25T07:30:25;6.10;;;2.17;;
37241;SDS011;23135;51.078;12.108;2023-04-25T07:32:51;3.67;;;1.80;;
37241;SDS011;23135;51.078;12.108;2023-04-25T07:35:16;6.85;;;2.70;;
37241;SDS011;23135;51.078;12.108;2023-04-25T07:37:42;12.25;;;2.63;;
37241;SDS011;23135;51.078;12.108;2023-04-25T07:40:08;5.78;;;2.30;;
37241;SDS011;23135;51.078;12.108;2023-04-25T07:42:34;6.25;;;2.30;;
37241;SDS011;23135;51.078;12.108;2023-04-25T07:45:00;4.32;;;2.50;;
37241;SDS011;23135;51.078;12.108;2023-04-25T07:47:26;8.63;;;2.70;;
37241;SDS011;23135;51.078;12.108;2023-04-25T07:49:52;13.80;;;2.28;;
37241;SDS011;23135;51.078;12.108;2023-04-25T07:52:17;5.10;;;2.45;;
37241;SDS011;23135;51.078;12.108;2023-04-25T07:54:43;11.23;;;2.80;;
37241;SDS011;23135;51.078;12.108;2023-04-25T07:57:08;3.88;;;2.42;;
37241;SDS011;23135;51.078;12.108;2023-04-25T07:59:34;12.15;;;2.50;;
37241;SDS011;23135;51.078;12.108;2023-04-25T08:02:00;6.85;;;2.90;;
37241;SDS011;23135;51.078;12.108;2023-04-25T08:04:25;7.93;;;2.70;;
37241;SDS011;23135;51.078;12.108;2023-04-25T08:06:51;6.45;;;2.75;;
37241;SDS011;23135;51.078;12.108;2023-04-25T08:09:18;6.30;;;3.33;;
37241;SDS011;23135;51.078;12.108;2023-04-25T08:11:44;3.25;;;2.50;;
37241;SDS011;23135;51.078;12.108;2023-04-25T08:14:11;5.97;;;3.08;;
37241;SDS011;23135;51.078;12.108;2023-04-25T08:16:36;7.03;;;2.40;;
37241;SDS011;23135;51.078;12.108;2023-04-25T08:19:02;7.88;;;3.42;;
37241;SDS011;23135;51.078;12.108;2023-04-25T08:23:54;7.13;;;3.42;;
37241;SDS011;23135;51.078;12.108;2023-04-25T08:26:20;8.55;;;3.35;;
37241;SDS011;23135;51.078;12.108;2023-04-25T08:28:46;14.95;;;3.85;;
37241;SDS011;23135;51.078;12.108;2023-04-25T08:31:11;7.32;;;3.45;;
37241;SDS011;23135;51.078;12.108;2023-04-25T08:33:37;11.60;;;5.03;;
37241;SDS011;23135;51.078;12.108;2023-04-25T08:36:03;7.25;;;3.55;;
37241;SDS011;23135;51.078;12.108;2023-04-25T08:38:28;4.70;;;3.28;;
37241;SDS011;23135;51.078;12.108;2023-04-25T08:40:54;6.68;;;2.65;;
37241;SDS011;23135;51.078;12.108;2023-04-25T08:43:21;7.05;;;3.10;;
37241;SDS011;23135;51.078;12.108;2023-04-25T08:45:48;7.20;;;3.60;;
37241;SDS011;23135;51.078;12.108;2023-04-25T08:48:15;8.70;;;3.60;;
37241;SDS011;23135;51.078;12.108;2023-04-25T08:50:44;7.22;;;3.08;;
37241;SDS011;23135;51.078;12.108;2023-04-25T08:53:15;7.88;;;3.67;;
37241;SDS011;23135;51.078;12.108;2023-04-25T08:55:44;7.43;;;3.88;;
37241;SDS011;23135;51.078;12.108;2023-04-25T08:58:11;6.30;;;3.70;;
37241;SDS011;23135;51.078;12.108;2023-04-25T09:00:38;10.18;;;2.90;;
37241;SDS011;23135;51.078;12.108;2023-04-25T09:03:04;5.72;;;2.60;;
37241;SDS011;23135;51.078;12.108;2023-04-25T09:05:30;6.88;;;2.97;;
37241;SDS011;23135;51.078;12.108;2023-04-25T09:07:57;9.70;;;3.72;;
37241;SDS011;23135;51.078;12.108;2023-04-25T09:10:23;5.85;;;3.60;;
37241;SDS011;23135;51.078;12.108;2023-04-25T09:13:11;6.82;;;3.33;;
37241;SDS011;23135;51.078;12.108;2023-04-25T09:15:47;10.98;;;2.40;;
37241;SDS011;23135;51.078;12.108;2023-04-25T09:18:21;6.03;;;2.50;;
37241;SDS011;23135;51.078;12.108;2023-04-25T09:21:07;11.25;;;2.17;;
37241;SDS011;23135;51.078;12.108;2023-04-25T09:23:40;6.25;;;3.13;;
37241;SDS011;23135;51.078;12.108;2023-04-25T09:26:10;5.28;;;2.03;;
37241;SDS011;23135;51.078;12.108;2023-04-25T09:28:39;6.30;;;3.22;;
37241;SDS011;23135;51.078;12.108;2023-04-25T09:31:05;9.77;;;3.30;;
37241;SDS011;23135;51.078;12.108;2023-04-25T09:33:32;13.48;;;3.28;;
37241;SDS011;23135;51.078;12.108;2023-04-25T09:36:07;9.48;;;3.45;;
37241;SDS011;23135;51.078;12.108;2023-04-25T09:38:44;14.02;;;4.57;;
37241;SDS011;23135;51.078;12.108;2023-04-25T09:41:11;12.25;;;4.03;;
37241;SDS011;23135;51.078;12.108;2023-04-25T09:43:37;14.85;;;3.85;;
37241;SDS011;23135;51.078;12.108;2023-04-25T09:46:10;4.53;;;3.15;;
37241;SDS011;23135;51.078;12.108;2023-04-25T09:48:37;7.63;;;3.08;;
37241;SDS011;23135;51.078;12.108;2023-04-25T09:53:35;12.35;;;4.25;;
37241;SDS011;23135;51.078;12.108;2023-04-25T09:56:03;6.10;;;2.83;;
37241;SDS011;23135;51.078;12.108;2023-04-25T09:58:31;22.55;;;12.38;;
37241;SDS011;23135;51.078;12.108;2023-04-25T10:00:59;10.50;;;4.65;;
37241;SDS011;23135;51.078;12.108;2023-04-25T10:03:27;5.50;;;2.67;;
37241;SDS011;23135;51.078;12.108;2023-04-25T10:05:55;5.13;;;1.60;;
37241;SDS011;23135;51.078;12.108;2023-04-25T10:08:27;4.25;;;1.55;;
37241;SDS011;23135;51.078;12.108;2023-04-25T10:11:01;3.30;;;1.10;;
37241;SDS011;23135;51.078;12.108;2023-04-25T10:13:31;10.80;;;2.33;;
37241;SDS011;23135;51.078;12.108;2023-04-25T10:16:02;5.70;;;1.25;;
37241;SDS011;23135;51.078;12.108;2023-04-25T10:18:29;2.92;;;1.50;;
37241;SDS011;23135;51.078;12.108;2023-04-25T10:20:58;7.75;;;2.42;;
37241;SDS011;23135;51.078;12.108;2023-04-25T10:23:25;7.30;;;1.27;;
37241;SDS011;23135;51.078;12.108;2023-04-25T10:25:52;8.68;;;1.83;;
37241;SDS011;23135;51.078;12.108;2023-04-25T10:28:18;10.80;;;2.22;;
37241;SDS011;23135;51.078;12.108;2023-04-25T10:33:43;9.95;;;2.00;;
37241;SDS011;23135;51.078;12.108;2023-04-25T10:36:10;10.32;;;1.95;;
37241;SDS011;23135;51.078;12.108;2023-04-25T10:38:37;7.90;;;2.17;;
37241;SDS011;23135;51.078;12.108;2023-04-25T10:41:03;6.60;;;1.33;;
37241;SDS011;23135;51.078;12.108;2023-04-25T10:45:55;7.78;;;2.22;;
37241;SDS011;23135;51.078;12.108;2023-04-25T10:48:25;5.63;;;1.92;;
37241;SDS011;23135;51.078;12.108;2023-04-25T10:51:06;4.32;;;1.73;;
37241;SDS011;23135;51.078;12.108;2023-04-25T10:53:35;8.15;;;2.70;;
37241;SDS011;23135;51.078;12.108;2023-04-25T10:56:09;8.20;;;3.25;;
37241;SDS011;23135;51.078;12.108;2023-04-25T10:58:45;11.43;;;3.67;;
37241;SDS011;23135;51.078;12.108;2023-04-25T11:01:12;8.18;;;3.42;;
37241;SDS011;23135;51.078;12.108;2023-04-25T11:03:42;10.05;;;3.17;;
37241;SDS011;23135;51.078;12.108;2023-04-25T11:08:51;12.23;;;4.53;;
37241;SDS011;23135;51.078;12.108;2023-04-25T11:11:17;8.45;;;3.45;;
37241;SDS011;23135;51.078;12.108;2023-04-25T11:13:43;6.22;;;2.50;;
37241;SDS011;23135;51.078;12.108;2023-04-25T11:16:10;12.88;;;3.30;;
37241;SDS011;23135;51.078;12.108;2023-04-25T11:18:35;6.72;;;3.40;;
37241;SDS011;23135;51.078;12.108;2023-04-25T11:21:02;6.88;;;2.65;;
37241;SDS011;23135;51.078;12.108;2023-04-25T11:23:28;9.00;;;3.47;;
37241;SDS011;23135;51.078;12.108;2023-04-25T11:25:55;7.90;;;3.22;;
37241;SDS011;23135;51.078;12.108;2023-04-25T11:28:21;6.57;;;2.85;;
37241;SDS011;23135;51.078;12.108;2023-04-25T11:30:51;5.43;;;2.67;;
37241;SDS011;23135;51.078;12.108;2023-04-25T11:33:17;6.95;;;1.95;;
37241;SDS011;23135;51.078;12.108;2023-04-25T11:35:43;6.28;;;2.50;;
37241;SDS011;23135;51.078;12.108;2023-04-25T11:38:08;7.10;;;2.58;;
37241;SDS011;23135;51.078;12.108;2023-04-25T11:40:37;4.30;;;1.35;;
37241;SDS011;23135;51.078;12.108;2023-04-25T11:43:03;5.43;;;1.73;;
37241;SDS011;23135;51.078;12.108;2023-04-25T11:45:28;7.45;;;1.15;;
37241;SDS011;23135;51.078;12.108;2023-04-25T11:47:55;6.95;;;1.98;;
37241;SDS011;23135;51.078;12.108;2023-04-25T11:50:21;3.03;;;1.10;;
37241;SDS011;23135;51.078;12.108;2023-04-25T11:52:47;3.97;;;1.20;;
37241;SDS011;23135;51.078;12.108;2023-04-25T11:55:17;3.22;;;1.30;;
37241;SDS011;23135;51.078;12.108;2023-04-25T11:57:45;7.57;;;1.65;;
37241;SDS011;23135;51.078;12.108;2023-04-25T12:00:16;3.33;;;0.90;;
37241;SDS011;23135;51.078;12.108;2023-04-25T12:02:47;4.88;;;1.90;;
37241;SDS011;23135;51.078;12.108;2023-04-25T12:05:16;5.93;;;1.60;;
37241;SDS011;23135;51.078;12.108;2023-04-25T12:07:42;2.90;;;1.33;;
37241;SDS011;23135;51.078;12.108;2023-04-25T12:10:09;4.63;;;1.08;;
37241;SDS011;23135;51.078;12.108;2023-04-25T12:12:36;4.40;;;1.00;;
37241;SDS011;23135;51.078;12.108;2023-04-25T12:17:36;8.32;;;1.70;;
37241;SDS011;23135;51.078;12.108;2023-04-25T12:20:47;9.32;;;2.55;;
37241;SDS011;23135;51.078;12.108;2023-04-25T12:22:56;4.22;;;1.50;;
37241;SDS011;23135;51.078;12.108;2023-04-25T12:25:35;4.97;;;2.10;;
37241;SDS011;23135;51.078;12.108;2023-04-25T12:30:51;7.50;;;1.45;;
37241;SDS011;23135;51.078;12.108;2023-04-25T12:33:31;5.82;;;1.15;;
37241;SDS011;23135;51.078;12.108;2023-04-25T12:35:58;11.65;;;2.97;;
37241;SDS011;23135;51.078;12.108;2023-04-25T12:38:26;5.68;;;1.92;;
37241;SDS011;23135;51.078;12.108;2023-04-25T12:40:53;7.20;;;1.08;;
37241;SDS011;23135;51.078;12.108;2023-04-25T12:43:19;5.18;;;1.02;;
37241;SDS011;23135;51.078;12.108;2023-04-25T12:45:54;4.40;;;0.63;;
37241;SDS011;23135;51.078;12.108;2023-04-25T12:48:21;7.22;;;1.23;;
37241;SDS011;23135;51.078;12.108;2023-04-25T12:50:47;6.80;;;0.60;;
37241;SDS011;23135;51.078;12.108;2023-04-25T12:53:21;8.63;;;0.80;;
37241;SDS011;23135;51.078;12.108;2023-04-25T12:55:48;4.35;;;0.75;;
37241;SDS011;23135;51.078;12.108;2023-04-25T12:58:14;6.32;;;0.40;;
37241;SDS011;23135;51.078;12.108;2023-04-25T13:00:41;6.80;;;0.68;;
37241;SDS011;23135;51.078;12.108;2023-04-25T13:03:07;7.43;;;0.82;;
37241;SDS011;23135;51.078;12.108;2023-04-25T13:05:33;4.85;;;0.52;;
37241;SDS011;23135;51.078;12.108;2023-04-25T13:07:59;3.67;;;0.30;;
37241;SDS011;23135;51.078;12.108;2023-04-25T13:10:25;8.70;;;0.93;;
37241;SDS011;23135;51.078;12.108;2023-04-25T13:12:50;9.68;;;0.85;;
37241;SDS011;23135;51.078;12.108;2023-04-25T13:15:16;8.25;;;0.35;;
37241;SDS011;23135;51.078;12.108;2023-04-25T13:17:42;5.75;;;0.68;;
37241;SDS011;23135;51.078;12.108;2023-04-25T13:20:08;6.40;;;0.57;;
37241;SDS011;23135;51.078;12.108;2023-04-25T13:22:38;5.45;;;0.30;;
37241;SDS011;23135;51.078;12.108;2023-04-25T13:25:05;8.07;;;0.47;;
37241;SDS011;23135;51.078;12.108;2023-04-25T13:27:32;9.77;;;1.35;;
37241;SDS011;23135;51.078;12.108;2023-04-25T13:29:59;5.07;;;0.35;;
37241;SDS011;23135;51.078;12.108;2023-04-25T13:32:26;13.07;;;0.52;;
37241;SDS011;23135;51.078;12.108;2023-04-25T13:34:52;6.72;;;0.45;;
37241;SDS011;23135;51.078;12.108;2023-04-25T13:37:18;4.78;;;0.20;;
37241;SDS011;23135;51.078;12.108;2023-04-25T13:39:43;6.05;;;0.30;;
37241;SDS011;23135;51.078;12.108;2023-04-25T13:42:09;4.82;;;0.75;;
37241;SDS011;23135;51.078;12.108;2023-04-25T13:44:35;8.77;;;1.40;;
37241;SDS011;23135;51.078;12.108;2023-04-25T13:47:01;6.72;;;0.00;;
37241;SDS011;23135;51.078;12.108;2023-04-25T13:49:27;6.03;;;0.50;;
37241;SDS011;23135;51.078;12.108;2023-04-25T13:51:52;6.78;;;0.30;;
37241;SDS011;23135;51.078;12.108;2023-04-25T13:54:18;3.97;;;0.65;;
37241;SDS011;23135;51.078;12.108;2023-04-25T13:56:43;5.90;;;0.50;;
37241;SDS011;23135;51.078;12.108;2023-04-25T13:59:09;3.88;;;0.40;;
37241;SDS011;23135;51.078;12.108;2023-04-25T14:01:35;4.38;;;0.10;;
37241;SDS011;23135;51.078;12.108;2023-04-25T14:04:01;6.22;;;1.55;;
37241;SDS011;23135;51.078;12.108;2023-04-25T14:06:28;4.53;;;0.30;;
37241;SDS011;23135;51.078;12.108;2023-04-25T14:08:54;6.43;;;0.38;;
37241;SDS011;23135;51.078;12.108;2023-04-25T14:11:20;7.53;;;0.63;;
37241;SDS011;23135;51.078;12.108;2023-04-25T14:13:46;4.90;;;0.57;;
37241;SDS011;23135;51.078;12.108;2023-04-25T14:16:12;7.55;;;2.00;;
37241;SDS011;23135;51.078;12.108;2023-04-25T14:18:38;4.72;;;0.93;;
37241;SDS011;23135;51.078;12.108;2023-04-25T14:21:04;6.15;;;1.08;;
37241;SDS011;23135;51.078;12.108;2023-04-25T14:23:30;4.82;;;0.90;;
37241;SDS011;23135;51.078;12.108;2023-04-25T14:25:55;5.32;;;0.73;;
37241;SDS011;23135;51.078;12.108;2023-04-25T14:28:21;9.02;;;0.98;;
37241;SDS011;23135;51.078;12.108;2023-04-25T14:30:46;3.60;;;0.60;;
37241;SDS011;23135;51.078;12.108;2023-04-25T14:33:12;3.95;;;0.28;;
37241;SDS011;23135;51.078;12.108;2023-04-25T14:35:38;7.82;;;0.90;;
37241;SDS011;23135;51.078;12.108;2023-04-25T14:38:04;3.55;;;0.45;;
37241;SDS011;23135;51.078;12.108;2023-04-25T14:40:30;6.68;;;0.30;;
37241;SDS011;23135;51.078;12.108;2023-04-25T14:42:55;11.95;;;0.50;;
37241;SDS011;23135;51.078;12.108;2023-04-25T14:45:21;5.25;;;0.52;;
37241;SDS011;23135;51.078;12.108;2023-04-25T14:47:47;5.13;;;0.47;;